Terminal Aerodrome Forecast
Issued by NWS Wilmington, OH

Current Version | Previous Version | Graphics & Text | Print | Product List | Glossary On
Versions: 1 2 3 4 5 6 7 8 9 10 11 12 13 14 15 16 17 18 19 20 21 22 23 24 25 26 27 28 29 30 31
000
FTUS41 KILN 040900 AAA
TAFCVG
TAF AMD
KCVG 040911Z 0409/0512 32006KT 4SM -RA BR OVC015
      TEMPO 0409/0411 BKN007
     FM041200 33008KT 5SM -RA BR BKN015 OVC030
     FM041700 33011KT 3SM -RAPL BR SCT007 OVC012
     FM041900 34012KT 1SM -SN OVC007
     FM050100 35012KT 3SM -SN OVC010
     FM050600 36010KT P6SM BKN015 OVC100=

USA.gov is the U.S. government's official web portal to all federal, state and local government web resources and services.